ftoadriana.com.pl
 

WITAMY W ADRIANA AVIATION

Jesteśmy:

OŚRODKIEM SZKOLENIA LOTNICZEGO ATO


W Adriana Aviation otrzymasz wysokiej jakości szkolenia samolotowe prowadzone przez profesjonalnych instruktorów. Szkolimy do licencji zawodowej w systemie modułowym, w następujących rodzajach:
  • licencja pilota rekreacyjnego LAPL
  • licencja pilota turystycznego PPL
  • licencja pilota zawodowego CPL
  • licencja pilota liniowego (teoria) ATPL
  • do lotów nocnych
  • do lotów wg wskazań przyrządów IR
  • na samoloty jednosilnikowe
  • na samoloty wielosilnikowe
  • do uprawnień instruktora
  • na typy samolotów turbinowych
  • konwersje licencji wojskowych
Jesteśmy:

ORGANIZACJĄ: OBSŁUGOWĄ PART 145, CAMO PART M/G


Organizacja obsługowa Adriana Aviation działa w oparciu o wymagania Part 145.
Wykonujemy inspekcje, weryfikacje, naprawy główne, przeglądy:
  • silników
  • iskrowników, alternatorów, rozruszników
  • śmigieł

Pośredniczymy w sprowadzaniu części zamiennych.

Wykonujemy przeglądy strukturalne SID.

Wykonujemy lakierowanie samolotów.


Jesteśmy:

ZARZĄDZAJĄCYM LĄDOWISKA WATOROWO EPWT


Lotnisko Watorowo EPWT jest położone w pobliżu miasta Chełmno, pomiędzy Bydgoszczą, Toruniem, a Grudziądzem.

Koordynaty: N531754.5, E0182448.6

Częstotliwość 118,725

Elewacja: 298ft

Pas startowy RWY 08/26, 800x53.

Przylot należy wcześniej uzgodnić.

Na miejscu jest wygodny hotel, hangar, płyty postojowe i miejsce do briefingu pilotów.
 
 

KONTAKT


Adriana Aviation
Lotnisko Watorowo
ul. Chełmińska 14
86-253 Kijewo Królewskie
Tel.: +48 56 686 49 56
Fax.: +48 56 686 78 67
lotnictwo@adriana.com.pl

FECEBOOK


 

POGODA W WATOROWIE


METAR (ostatnia godzina):
EPBY 050200Z 24009KT 5000 BR FEW004 OVC028 M00/M01 Q1028
EPBY 050130Z 24008KT 4000 BR SCT004 OVC028 M00/M01 Q1028

TAF EPBY 042330Z 0500/0524 24008KT 4000 BR BKN004 PROB40 0500/0508 2000 BR BKN002 BECMG 0509/0511 CAVOK

SERWISY POGODOWE - przejdź

CERTYFIKATY


https://easa.europa.eu/

http://ulc.gov.pl/


PARTNERZY


bristol.gs
 
 

regulamin | mapa strony

© 2016 ADRIANA AVIATION / Created by Wojciech Różański